sensor_id;sensor_type;location;lat;lon;timestamp;P1;durP1;ratioP1;P2;durP2;ratioP2
71838;SDS011;59687;37.520;15.068;2023-01-01T00:02:18;178.88;;;117.13;;
71838;SDS011;59687;37.520;15.068;2023-01-01T00:04:44;162.05;;;108.35;;
71838;SDS011;59687;37.520;15.068;2023-01-01T00:07:12;166.48;;;107.32;;
71838;SDS011;59687;37.520;15.068;2023-01-01T00:09:39;168.48;;;103.43;;
71838;SDS011;59687;37.520;15.068;2023-01-01T00:12:26;152.47;;;98.97;;
71838;SDS011;59687;37.520;15.068;2023-01-01T00:14:54;156.88;;;96.70;;
71838;SDS011;59687;37.520;15.068;2023-01-01T00:17:21;146.95;;;89.97;;
71838;SDS011;59687;37.520;15.068;2023-01-01T00:19:47;140.30;;;88.03;;
71838;SDS011;59687;37.520;15.068;2023-01-01T00:22:16;142.15;;;85.35;;
71838;SDS011;59687;37.520;15.068;2023-01-01T00:25:05;126.60;;;79.83;;
71838;SDS011;59687;37.520;15.068;2023-01-01T00:27:33;128.50;;;79.25;;
71838;SDS011;59687;37.520;15.068;2023-01-01T00:30:00;123.03;;;76.95;;
71838;SDS011;59687;37.520;15.068;2023-01-01T00:32:29;122.05;;;73.20;;
71838;SDS011;59687;37.520;15.068;2023-01-01T00:34:56;110.07;;;70.07;;
71838;SDS011;59687;37.520;15.068;2023-01-01T00:37:26;110.83;;;69.07;;
71838;SDS011;59687;37.520;15.068;2023-01-01T00:39:54;115.57;;;69.18;;
71838;SDS011;59687;37.520;15.068;2023-01-01T00:42:21;104.60;;;67.47;;
71838;SDS011;59687;37.520;15.068;2023-01-01T00:44:49;104.72;;;61.92;;
71838;SDS011;59687;37.520;15.068;2023-01-01T00:47:16;98.47;;;61.25;;
71838;SDS011;59687;37.520;15.068;2023-01-01T00:49:43;91.10;;;55.57;;
71838;SDS011;59687;37.520;15.068;2023-01-01T00:52:10;91.30;;;54.60;;
71838;SDS011;59687;37.520;15.068;2023-01-01T00:54:42;80.97;;;50.08;;
71838;SDS011;59687;37.520;15.068;2023-01-01T00:57:09;80.07;;;47.35;;
71838;SDS011;59687;37.520;15.068;2023-01-01T00:59:39;72.03;;;46.17;;
71838;SDS011;59687;37.520;15.068;2023-01-01T01:02:06;66.63;;;42.33;;
71838;SDS011;59687;37.520;15.068;2023-01-01T01:04:33;69.50;;;41.33;;
71838;SDS011;59687;37.520;15.068;2023-01-01T01:07:01;60.40;;;38.15;;
71838;SDS011;59687;37.520;15.068;2023-01-01T01:09:28;55.88;;;35.92;;
71838;SDS011;59687;37.520;15.068;2023-01-01T01:11:55;59.17;;;35.42;;
71838;SDS011;59687;37.520;15.068;2023-01-01T01:14:27;50.43;;;30.50;;
71838;SDS011;59687;37.520;15.068;2023-01-01T01:16:55;42.83;;;27.30;;
71838;SDS011;59687;37.520;15.068;2023-01-01T01:19:22;47.75;;;28.83;;
71838;SDS011;59687;37.520;15.068;2023-01-01T01:21:51;43.85;;;26.15;;
71838;SDS011;59687;37.520;15.068;2023-01-01T01:24:21;49.60;;;26.50;;
71838;SDS011;59687;37.520;15.068;2023-01-01T01:26:48;47.23;;;26.27;;
71838;SDS011;59687;37.520;15.068;2023-01-01T01:29:18;46.83;;;25.27;;
71838;SDS011;59687;37.520;15.068;2023-01-01T01:31:45;41.38;;;24.05;;
71838;SDS011;59687;37.520;15.068;2023-01-01T01:34:14;38.08;;;21.58;;
71838;SDS011;59687;37.520;15.068;2023-01-01T01:36:45;42.90;;;21.33;;
71838;SDS011;59687;37.520;15.068;2023-01-01T01:39:18;36.20;;;19.97;;
71838;SDS011;59687;37.520;15.068;2023-01-01T01:41:45;36.22;;;20.73;;
71838;SDS011;59687;37.520;15.068;2023-01-01T01:47:57;27.52;;;15.75;;
71838;SDS011;59687;37.520;15.068;2023-01-01T01:50:34;29.15;;;16.10;;
71838;SDS011;59687;37.520;15.068;2023-01-01T01:53:06;26.10;;;14.83;;
71838;SDS011;59687;37.520;15.068;2023-01-01T01:55:40;25.42;;;14.60;;
71838;SDS011;59687;37.520;15.068;2023-01-01T01:58:13;26.95;;;13.50;;
71838;SDS011;59687;37.520;15.068;2023-01-01T02:00:41;25.73;;;14.15;;
71838;SDS011;59687;37.520;15.068;2023-01-01T02:03:11;22.52;;;12.48;;
71838;SDS011;59687;37.520;15.068;2023-01-01T02:05:44;20.57;;;11.30;;
71838;SDS011;59687;37.520;15.068;2023-01-01T02:08:12;20.25;;;11.15;;
71838;SDS011;59687;37.520;15.068;2023-01-01T02:10:41;16.45;;;10.40;;
71838;SDS011;59687;37.520;15.068;2023-01-01T02:13:09;19.08;;;10.30;;
71838;SDS011;59687;37.520;15.068;2023-01-01T02:15:56;18.05;;;9.95;;
71838;SDS011;59687;37.520;15.068;2023-01-01T02:22:08;20.35;;;10.18;;
71838;SDS011;59687;37.520;15.068;2023-01-01T02:29:53;17.58;;;10.13;;
71838;SDS011;59687;37.520;15.068;2023-01-01T02:32:29;19.27;;;10.37;;
71838;SDS011;59687;37.520;15.068;2023-01-01T02:35:06;16.02;;;9.35;;
71838;SDS011;59687;37.520;15.068;2023-01-01T02:41:44;16.15;;;9.32;;
71838;SDS011;59687;37.520;15.068;2023-01-01T02:43:52;19.80;;;9.60;;
71838;SDS011;59687;37.520;15.068;2023-01-01T02:46:19;17.37;;;8.87;;
71838;SDS011;59687;37.520;15.068;2023-01-01T02:48:51;20.85;;;9.52;;
71838;SDS011;59687;37.520;15.068;2023-01-01T02:53:57;16.87;;;9.07;;
71838;SDS011;59687;37.520;15.068;2023-01-01T03:02:51;17.15;;;8.40;;
71838;SDS011;59687;37.520;15.068;2023-01-01T03:11:14;16.63;;;8.75;;
71838;SDS011;59687;37.520;15.068;2023-01-01T03:13:52;16.92;;;9.35;;
71838;SDS011;59687;37.520;15.068;2023-01-01T03:16:47;18.33;;;8.70;;
71838;SDS011;59687;37.520;15.068;2023-01-01T03:19:19;16.85;;;8.77;;
71838;SDS011;59687;37.520;15.068;2023-01-01T03:21:52;15.77;;;8.70;;
71838;SDS011;59687;37.520;15.068;2023-01-01T03:24:31;17.83;;;8.98;;
71838;SDS011;59687;37.520;15.068;2023-01-01T03:27:50;18.55;;;8.93;;
71838;SDS011;59687;37.520;15.068;2023-01-01T03:30:24;17.95;;;7.70;;
71838;SDS011;59687;37.520;15.068;2023-01-01T03:32:55;14.32;;;8.60;;
71838;SDS011;59687;37.520;15.068;2023-01-01T03:35:42;15.03;;;8.20;;
71838;SDS011;59687;37.520;15.068;2023-01-01T03:41:04;15.50;;;8.50;;
71838;SDS011;59687;37.520;15.068;2023-01-01T03:43:45;15.95;;;7.57;;
71838;SDS011;59687;37.520;15.068;2023-01-01T03:46:16;17.48;;;7.32;;
71838;SDS011;59687;37.520;15.068;2023-01-01T03:48:49;13.47;;;6.67;;
71838;SDS011;59687;37.520;15.068;2023-01-01T03:54:34;12.68;;;6.53;;
71838;SDS011;59687;37.520;15.068;2023-01-01T04:00:14;14.98;;;7.13;;
71838;SDS011;59687;37.520;15.068;2023-01-01T04:02:58;12.67;;;6.37;;
71838;SDS011;59687;37.520;15.068;2023-01-01T04:05:29;13.02;;;6.93;;
71838;SDS011;59687;37.520;15.068;2023-01-01T04:08:04;12.23;;;6.22;;
71838;SDS011;59687;37.520;15.068;2023-01-01T04:10:33;10.50;;;5.85;;
71838;SDS011;59687;37.520;15.068;2023-01-01T04:13:03;16.10;;;5.90;;
71838;SDS011;59687;37.520;15.068;2023-01-01T04:15:32;11.53;;;5.67;;
71838;SDS011;59687;37.520;15.068;2023-01-01T04:18:02;12.88;;;6.72;;
71838;SDS011;59687;37.520;15.068;2023-01-01T04:20:32;12.43;;;5.75;;
71838;SDS011;59687;37.520;15.068;2023-01-01T04:23:02;10.70;;;5.50;;
71838;SDS011;59687;37.520;15.068;2023-01-01T04:25:29;11.85;;;5.45;;
71838;SDS011;59687;37.520;15.068;2023-01-01T04:27:56;11.57;;;5.73;;
71838;SDS011;59687;37.520;15.068;2023-01-01T04:30:29;11.88;;;5.55;;
71838;SDS011;59687;37.520;15.068;2023-01-01T04:32:56;12.70;;;5.80;;
71838;SDS011;59687;37.520;15.068;2023-01-01T04:35:26;14.43;;;5.70;;
71838;SDS011;59687;37.520;15.068;2023-01-01T04:37:53;10.43;;;5.43;;
71838;SDS011;59687;37.520;15.068;2023-01-01T04:40:20;10.53;;;5.30;;
71838;SDS011;59687;37.520;15.068;2023-01-01T04:42:47;10.45;;;5.43;;
71838;SDS011;59687;37.520;15.068;2023-01-01T04:45:14;10.90;;;5.78;;
71838;SDS011;59687;37.520;15.068;2023-01-01T04:47:41;11.30;;;4.78;;
71838;SDS011;59687;37.520;15.068;2023-01-01T04:50:08;9.73;;;5.03;;
71838;SDS011;59687;37.520;15.068;2023-01-01T04:52:35;10.80;;;5.27;;
71838;SDS011;59687;37.520;15.068;2023-01-01T04:55:03;10.48;;;5.50;;
71838;SDS011;59687;37.520;15.068;2023-01-01T04:57:30;11.98;;;5.25;;
71838;SDS011;59687;37.520;15.068;2023-01-01T04:59:58;10.40;;;4.90;;
71838;SDS011;59687;37.520;15.068;2023-01-01T05:02:25;10.70;;;5.13;;
71838;SDS011;59687;37.520;15.068;2023-01-01T05:04:52;10.67;;;4.97;;
71838;SDS011;59687;37.520;15.068;2023-01-01T05:07:21;11.65;;;5.03;;
71838;SDS011;59687;37.520;15.068;2023-01-01T05:09:48;11.05;;;5.65;;
71838;SDS011;59687;37.520;15.068;2023-01-01T05:12:18;10.68;;;5.25;;
71838;SDS011;59687;37.520;15.068;2023-01-01T05:14:44;10.52;;;5.38;;
71838;SDS011;59687;37.520;15.068;2023-01-01T05:17:13;11.57;;;5.73;;
71838;SDS011;59687;37.520;15.068;2023-01-01T05:19:41;9.02;;;5.07;;
71838;SDS011;59687;37.520;15.068;2023-01-01T05:22:08;9.68;;;5.72;;
71838;SDS011;59687;37.520;15.068;2023-01-01T05:24:36;10.93;;;6.22;;
71838;SDS011;59687;37.520;15.068;2023-01-01T05:27:07;12.20;;;5.63;;
71838;SDS011;59687;37.520;15.068;2023-01-01T05:29:35;10.80;;;5.30;;
71838;SDS011;59687;37.520;15.068;2023-01-01T05:32:03;12.75;;;5.90;;
71838;SDS011;59687;37.520;15.068;2023-01-01T05:34:31;11.40;;;5.40;;
71838;SDS011;59687;37.520;15.068;2023-01-01T05:37:02;10.02;;;4.47;;
71838;SDS011;59687;37.520;15.068;2023-01-01T05:39:28;11.15;;;5.30;;
71838;SDS011;59687;37.520;15.068;2023-01-01T05:41:57;11.87;;;5.37;;
71838;SDS011;59687;37.520;15.068;2023-01-01T05:44:24;11.10;;;5.05;;
71838;SDS011;59687;37.520;15.068;2023-01-01T05:46:52;11.77;;;5.47;;
71838;SDS011;59687;37.520;15.068;2023-01-01T05:49:19;12.60;;;5.55;;
71838;SDS011;59687;37.520;15.068;2023-01-01T05:51:46;9.90;;;4.63;;
71838;SDS011;59687;37.520;15.068;2023-01-01T05:54:12;12.47;;;5.63;;
71838;SDS011;59687;37.520;15.068;2023-01-01T05:56:38;10.32;;;5.40;;
71838;SDS011;59687;37.520;15.068;2023-01-01T05:59:05;11.18;;;5.82;;
71838;SDS011;59687;37.520;15.068;2023-01-01T06:01:32;13.23;;;5.32;;
71838;SDS011;59687;37.520;15.068;2023-01-01T06:04:01;12.17;;;5.00;;
71838;SDS011;59687;37.520;15.068;2023-01-01T06:06:30;12.30;;;6.03;;
71838;SDS011;59687;37.520;15.068;2023-01-01T06:09:00;10.07;;;5.75;;
71838;SDS011;59687;37.520;15.068;2023-01-01T06:11:28;10.30;;;5.35;;
71838;SDS011;59687;37.520;15.068;2023-01-01T06:13:57;10.18;;;5.38;;
71838;SDS011;59687;37.520;15.068;2023-01-01T06:16:28;11.13;;;5.53;;
71838;SDS011;59687;37.520;15.068;2023-01-01T06:18:56;11.35;;;5.18;;
71838;SDS011;59687;37.520;15.068;2023-01-01T06:21:25;11.43;;;5.20;;
71838;SDS011;59687;37.520;15.068;2023-01-01T06:23:57;12.23;;;5.18;;
71838;SDS011;59687;37.520;15.068;2023-01-01T06:26:28;11.23;;;5.10;;
71838;SDS011;59687;37.520;15.068;2023-01-01T06:28:59;11.93;;;5.03;;
71838;SDS011;59687;37.520;15.068;2023-01-01T06:31:28;11.23;;;4.55;;
71838;SDS011;59687;37.520;15.068;2023-01-01T06:34:02;9.02;;;5.00;;
71838;SDS011;59687;37.520;15.068;2023-01-01T06:36:29;10.15;;;5.22;;
71838;SDS011;59687;37.520;15.068;2023-01-01T06:38:57;12.07;;;5.63;;
71838;SDS011;59687;37.520;15.068;2023-01-01T06:41:28;9.60;;;4.73;;
71838;SDS011;59687;37.520;15.068;2023-01-01T06:43:57;8.43;;;4.28;;
71838;SDS011;59687;37.520;15.068;2023-01-01T06:46:28;10.95;;;4.65;;
71838;SDS011;59687;37.520;15.068;2023-01-01T06:49:00;9.45;;;4.88;;
71838;SDS011;59687;37.520;15.068;2023-01-01T06:51:31;11.32;;;5.25;;
71838;SDS011;59687;37.520;15.068;2023-01-01T06:54:02;12.13;;;5.37;;
71838;SDS011;59687;37.520;15.068;2023-01-01T06:56:34;11.20;;;5.28;;
71838;SDS011;59687;37.520;15.068;2023-01-01T06:59:02;14.35;;;5.55;;
71838;SDS011;59687;37.520;15.068;2023-01-01T07:01:32;11.50;;;6.05;;
71838;SDS011;59687;37.520;15.068;2023-01-01T07:04:02;10.15;;;5.97;;
71838;SDS011;59687;37.520;15.068;2023-01-01T07:06:36;10.90;;;5.60;;
71838;SDS011;59687;37.520;15.068;2023-01-01T07:09:03;10.90;;;5.70;;
71838;SDS011;59687;37.520;15.068;2023-01-01T07:11:31;10.40;;;5.13;;
71838;SDS011;59687;37.520;15.068;2023-01-01T07:13:59;11.70;;;5.50;;
71838;SDS011;59687;37.520;15.068;2023-01-01T07:16:29;11.50;;;6.13;;
71838;SDS011;59687;37.520;15.068;2023-01-01T07:18:56;11.13;;;6.37;;
71838;SDS011;59687;37.520;15.068;2023-01-01T07:21:31;12.57;;;6.60;;
71838;SDS011;59687;37.520;15.068;2023-01-01T07:24:00;11.45;;;6.15;;
71838;SDS011;59687;37.520;15.068;2023-01-01T07:26:30;13.30;;;6.13;;
71838;SDS011;59687;37.520;15.068;2023-01-01T07:28:58;9.88;;;5.55;;
71838;SDS011;59687;37.520;15.068;2023-01-01T07:31:33;15.10;;;9.73;;
71838;SDS011;59687;37.520;15.068;2023-01-01T07:34:04;13.60;;;8.25;;
71838;SDS011;59687;37.520;15.068;2023-01-01T07:36:32;12.00;;;8.05;;
71838;SDS011;59687;37.520;15.068;2023-01-01T07:39:02;10.70;;;7.25;;
71838;SDS011;59687;37.520;15.068;2023-01-01T07:41:35;10.65;;;5.82;;
71838;SDS011;59687;37.520;15.068;2023-01-01T07:44:02;13.00;;;5.97;;
71838;SDS011;59687;37.520;15.068;2023-01-01T07:46:29;12.77;;;6.45;;
71838;SDS011;59687;37.520;15.068;2023-01-01T07:49:00;10.20;;;5.53;;
71838;SDS011;59687;37.520;15.068;2023-01-01T07:51:27;11.43;;;5.50;;
71838;SDS011;59687;37.520;15.068;2023-01-01T07:53:55;10.27;;;4.85;;
71838;SDS011;59687;37.520;15.068;2023-01-01T07:56:32;8.17;;;4.33;;
71838;SDS011;59687;37.520;15.068;2023-01-01T07:58:59;7.85;;;4.88;;
71838;SDS011;59687;37.520;15.068;2023-01-01T08:01:35;9.68;;;4.65;;
71838;SDS011;59687;37.520;15.068;2023-01-01T08:04:03;10.25;;;4.32;;
71838;SDS011;59687;37.520;15.068;2023-01-01T08:06:34;10.20;;;4.60;;
71838;SDS011;59687;37.520;15.068;2023-01-01T08:09:02;10.33;;;5.10;;
71838;SDS011;59687;37.520;15.068;2023-01-01T08:11:29;12.27;;;6.15;;
71838;SDS011;59687;37.520;15.068;2023-01-01T08:13:56;8.43;;;4.57;;
71838;SDS011;59687;37.520;15.068;2023-01-01T08:16:23;10.48;;;4.78;;
71838;SDS011;59687;37.520;15.068;2023-01-01T08:18:53;10.52;;;4.53;;
71838;SDS011;59687;37.520;15.068;2023-01-01T08:21:23;9.70;;;4.40;;
71838;SDS011;59687;37.520;15.068;2023-01-01T08:23:49;9.18;;;4.90;;
71838;SDS011;59687;37.520;15.068;2023-01-01T08:26:17;11.50;;;5.78;;
71838;SDS011;59687;37.520;15.068;2023-01-01T08:28:53;11.07;;;5.30;;
71838;SDS011;59687;37.520;15.068;2023-01-01T08:31:22;8.63;;;4.68;;
71838;SDS011;59687;37.520;15.068;2023-01-01T08:33:51;8.63;;;4.73;;
71838;SDS011;59687;37.520;15.068;2023-01-01T08:36:17;9.00;;;4.90;;
71838;SDS011;59687;37.520;15.068;2023-01-01T08:38:50;10.63;;;5.22;;
71838;SDS011;59687;37.520;15.068;2023-01-01T08:41:20;8.68;;;5.43;;
71838;SDS011;59687;37.520;15.068;2023-01-01T08:43:47;7.47;;;4.80;;
71838;SDS011;59687;37.520;15.068;2023-01-01T08:46:17;11.37;;;6.03;;
71838;SDS011;59687;37.520;15.068;2023-01-01T08:48:44;9.88;;;5.40;;
71838;SDS011;59687;37.520;15.068;2023-01-01T08:51:11;10.32;;;5.20;;
71838;SDS011;59687;37.520;15.068;2023-01-01T08:53:37;10.85;;;5.63;;
71838;SDS011;59687;37.520;15.068;2023-01-01T08:56:07;10.15;;;4.97;;
71838;SDS011;59687;37.520;15.068;2023-01-01T08:58:36;12.03;;;6.17;;
71838;SDS011;59687;37.520;15.068;2023-01-01T09:01:05;10.52;;;6.68;;
71838;SDS011;59687;37.520;15.068;2023-01-01T09:03:34;14.63;;;8.40;;
71838;SDS011;59687;37.520;15.068;2023-01-01T09:06:03;14.93;;;8.10;;
71838;SDS011;59687;37.520;15.068;2023-01-01T09:08:31;16.77;;;7.95;;
71838;SDS011;59687;37.520;15.068;2023-01-01T09:10:59;14.70;;;8.23;;
71838;SDS011;59687;37.520;15.068;2023-01-01T09:13:30;14.48;;;8.32;;
71838;SDS011;59687;37.520;15.068;2023-01-01T09:15:58;15.45;;;7.57;;
71838;SDS011;59687;37.520;15.068;2023-01-01T09:18:29;11.73;;;7.32;;
71838;SDS011;59687;37.520;15.068;2023-01-01T09:20:56;14.15;;;8.10;;
71838;SDS011;59687;37.520;15.068;2023-01-01T09:23:23;14.07;;;8.03;;
71838;SDS011;59687;37.520;15.068;2023-01-01T09:25:51;13.77;;;7.57;;
71838;SDS011;59687;37.520;15.068;2023-01-01T09:28:17;13.77;;;7.90;;
71838;SDS011;59687;37.520;15.068;2023-01-01T09:30:48;14.82;;;8.20;;
71838;SDS011;59687;37.520;15.068;2023-01-01T09:33:16;13.20;;;8.25;;
71838;SDS011;59687;37.520;15.068;2023-01-01T09:35:43;12.33;;;7.70;;
71838;SDS011;59687;37.520;15.068;2023-01-01T09:38:13;15.60;;;7.60;;
71838;SDS011;59687;37.520;15.068;2023-01-01T09:46:09;14.02;;;8.30;;
71838;SDS011;59687;37.520;15.068;2023-01-01T09:48:51;11.63;;;7.23;;
71838;SDS011;59687;37.520;15.068;2023-01-01T09:51:23;16.23;;;7.38;;
71838;SDS011;59687;37.520;15.068;2023-01-01T09:54:00;15.90;;;9.57;;
71838;SDS011;59687;37.520;15.068;2023-01-01T09:57:04;13.15;;;7.10;;
71838;SDS011;59687;37.520;15.068;2023-01-01T09:59:37;9.65;;;6.35;;
71838;SDS011;59687;37.520;15.068;2023-01-01T10:14:36;11.25;;;5.68;;
71838;SDS011;59687;37.520;15.068;2023-01-01T10:19:56;13.40;;;5.07;;
71838;SDS011;59687;37.520;15.068;2023-01-01T10:24:58;7.80;;;4.68;;
71838;SDS011;59687;37.520;15.068;2023-01-01T10:30:25;8.90;;;5.20;;
71838;SDS011;59687;37.520;15.068;2023-01-01T10:32:55;9.60;;;4.82;;
71838;SDS011;59687;37.520;15.068;2023-01-01T10:35:33;8.93;;;5.38;;
71838;SDS011;59687;37.520;15.068;2023-01-01T10:38:03;9.85;;;5.55;;
71838;SDS011;59687;37.520;15.068;2023-01-01T10:40:33;8.48;;;4.95;;
71838;SDS011;59687;37.520;15.068;2023-01-01T10:43:00;11.07;;;5.87;;
71838;SDS011;59687;37.520;15.068;2023-01-01T10:45:30;9.23;;;5.43;;
71838;SDS011;59687;37.520;15.068;2023-01-01T10:48:09;10.85;;;5.28;;
71838;SDS011;59687;37.520;15.068;2023-01-01T10:50:44;13.88;;;5.55;;
71838;SDS011;59687;37.520;15.068;2023-01-01T10:53:31;10.13;;;5.00;;
71838;SDS011;59687;37.520;15.068;2023-01-01T10:56:18;9.23;;;5.33;;
71838;SDS011;59687;37.520;15.068;2023-01-01T10:58:54;10.00;;;4.63;;
71838;SDS011;59687;37.520;15.068;2023-01-01T11:01:25;9.95;;;5.20;;
71838;SDS011;59687;37.520;15.068;2023-01-01T11:06:36;9.18;;;5.28;;
71838;SDS011;59687;37.520;15.068;2023-01-01T11:09:20;8.80;;;5.00;;
71838;SDS011;59687;37.520;15.068;2023-01-01T11:11:58;10.50;;;5.30;;
71838;SDS011;59687;37.520;15.068;2023-01-01T11:14:48;9.80;;;5.03;;
71838;SDS011;59687;37.520;15.068;2023-01-01T11:17:22;10.68;;;5.32;;
71838;SDS011;59687;37.520;15.068;2023-01-01T11:19:56;10.90;;;5.28;;
71838;SDS011;59687;37.520;15.068;2023-01-01T11:25:01;10.15;;;6.00;;
71838;SDS011;59687;37.520;15.068;2023-01-01T11:27:41;11.35;;;5.75;;
71838;SDS011;59687;37.520;15.068;2023-01-01T11:32:46;8.48;;;5.20;;
71838;SDS011;59687;37.520;15.068;2023-01-01T11:35:21;7.80;;;5.10;;
71838;SDS011;59687;37.520;15.068;2023-01-01T11:37:50;9.00;;;5.40;;
71838;SDS011;59687;37.520;15.068;2023-01-01T11:40:54;9.63;;;5.70;;
71838;SDS011;59687;37.520;15.068;2023-01-01T11:43:24;9.77;;;5.20;;
71838;SDS011;59687;37.520;15.068;2023-01-01T11:45:56;8.73;;;5.32;;
71838;SDS011;59687;37.520;15.068;2023-01-01T11:48:31;11.83;;;5.83;;
71838;SDS011;59687;37.520;15.068;2023-01-01T11:51:03;11.40;;;7.07;;
71838;SDS011;59687;37.520;15.068;2023-01-01T11:53:34;9.60;;;6.22;;
71838;SDS011;59687;37.520;15.068;2023-01-01T12:04:06;9.52;;;6.03;;
71838;SDS011;59687;37.520;15.068;2023-01-01T12:06:53;12.88;;;6.03;;
71838;SDS011;59687;37.520;15.068;2023-01-01T12:09:32;11.05;;;5.80;;
71838;SDS011;59687;37.520;15.068;2023-01-01T12:15:04;10.23;;;5.73;;
71838;SDS011;59687;37.520;15.068;2023-01-01T12:17:42;11.95;;;6.45;;
71838;SDS011;59687;37.520;15.068;2023-01-01T12:20:23;11.85;;;6.65;;
71838;SDS011;59687;37.520;15.068;2023-01-01T12:22:57;11.65;;;6.38;;
71838;SDS011;59687;37.520;15.068;2023-01-01T12:25:35;11.73;;;6.10;;
71838;SDS011;59687;37.520;15.068;2023-01-01T12:33:56;9.70;;;5.32;;
71838;SDS011;59687;37.520;15.068;2023-01-01T12:39:40;12.27;;;5.10;;
71838;SDS011;59687;37.520;15.068;2023-01-01T12:50:35;8.10;;;4.53;;
71838;SDS011;59687;37.520;15.068;2023-01-01T12:53:16;10.20;;;4.82;;
71838;SDS011;59687;37.520;15.068;2023-01-01T12:59:23;9.43;;;4.70;;
71838;SDS011;59687;37.520;15.068;2023-01-01T13:01:38;9.18;;;4.30;;
71838;SDS011;59687;37.520;15.068;2023-01-01T13:04:08;10.07;;;4.38;;
71838;SDS011;59687;37.520;15.068;2023-01-01T13:06:43;9.23;;;5.00;;
71838;SDS011;59687;37.520;15.068;2023-01-01T13:09:23;8.60;;;4.50;;
71838;SDS011;59687;37.520;15.068;2023-01-01T13:11:59;8.75;;;4.30;;
71838;SDS011;59687;37.520;15.068;2023-01-01T13:14:37;9.35;;;4.28;;
71838;SDS011;59687;37.520;15.068;2023-01-01T13:17:17;8.73;;;4.30;;
71838;SDS011;59687;37.520;15.068;2023-01-01T13:22:39;11.30;;;4.43;;
71838;SDS011;59687;37.520;15.068;2023-01-01T13:28:09;9.05;;;4.30;;
71838;SDS011;59687;37.520;15.068;2023-01-01T13:33:23;8.18;;;4.65;;
71838;SDS011;59687;37.520;15.068;2023-01-01T14:00:52;14.27;;;5.40;;
71838;SDS011;59687;37.520;15.068;2023-01-01T14:03:48;13.03;;;5.43;;
71838;SDS011;59687;37.520;15.068;2023-01-01T14:06:34;9.65;;;5.40;;
71838;SDS011;59687;37.520;15.068;2023-01-01T14:09:14;11.18;;;4.75;;
71838;SDS011;59687;37.520;15.068;2023-01-01T14:11:42;8.40;;;4.80;;
71838;SDS011;59687;37.520;15.068;2023-01-01T14:16:50;8.70;;;5.87;;
71838;SDS011;59687;37.520;15.068;2023-01-01T14:19:18;7.60;;;4.80;;
71838;SDS011;59687;37.520;15.068;2023-01-01T14:21:49;11.20;;;5.10;;
71838;SDS011;59687;37.520;15.068;2023-01-01T14:24:17;15.73;;;7.00;;
71838;SDS011;59687;37.520;15.068;2023-01-01T14:26:46;10.13;;;5.60;;
71838;SDS011;59687;37.520;15.068;2023-01-01T14:29:17;10.77;;;4.90;;
71838;SDS011;59687;37.520;15.068;2023-01-01T14:31:48;11.20;;;5.20;;
71838;SDS011;59687;37.520;15.068;2023-01-01T14:34:36;10.05;;;5.28;;
71838;SDS011;59687;37.520;15.068;2023-01-01T14:37:03;9.80;;;5.30;;
71838;SDS011;59687;37.520;15.068;2023-01-01T14:39:33;10.75;;;5.00;;
71838;SDS011;59687;37.520;15.068;2023-01-01T14:42:11;9.97;;;5.13;;
71838;SDS011;59687;37.520;15.068;2023-01-01T14:44:44;10.00;;;5.10;;
71838;SDS011;59687;37.520;15.068;2023-01-01T14:47:22;12.27;;;4.68;;
71838;SDS011;59687;37.520;15.068;2023-01-01T14:49:56;14.13;;;6.63;;
71838;SDS011;59687;37.520;15.068;2023-01-01T14:52:36;10.50;;;6.15;;
71838;SDS011;59687;37.520;15.068;2023-01-01T14:55:03;13.17;;;5.40;;
71838;SDS011;59687;37.520;15.068;2023-01-01T14:57:34;11.15;;;5.57;;
71838;SDS011;59687;37.520;15.068;2023-01-01T15:00:13;11.10;;;5.78;;
71838;SDS011;59687;37.520;15.068;2023-01-01T15:02:50;11.82;;;5.50;;
71838;SDS011;59687;37.520;15.068;2023-01-01T15:05:32;12.02;;;4.97;;
71838;SDS011;59687;37.520;15.068;2023-01-01T15:08:02;13.23;;;5.50;;
71838;SDS011;59687;37.520;15.068;2023-01-01T15:10:34;12.60;;;6.60;;
71838;SDS011;59687;37.520;15.068;2023-01-01T15:13:03;10.85;;;5.40;;
71838;SDS011;59687;37.520;15.068;2023-01-01T15:15:42;11.10;;;5.85;;
71838;SDS011;59687;37.520;15.068;2023-01-01T15:21:00;10.80;;;5.83;;
71838;SDS011;59687;37.520;15.068;2023-01-01T15:23:35;11.27;;;5.10;;
71838;SDS011;59687;37.520;15.068;2023-01-01T15:26:08;9.73;;;5.60;;
71838;SDS011;59687;37.520;15.068;2023-01-01T15:28:36;10.85;;;5.13;;
71838;SDS011;59687;37.520;15.068;2023-01-01T15:31:07;9.43;;;5.30;;
71838;SDS011;59687;37.520;15.068;2023-01-01T15:33:35;14.33;;;5.50;;
71838;SDS011;59687;37.520;15.068;2023-01-01T15:36:02;14.52;;;5.78;;
71838;SDS011;59687;37.520;15.068;2023-01-01T15:38:30;10.38;;;5.43;;
71838;SDS011;59687;37.520;15.068;2023-01-01T15:41:24;12.32;;;5.90;;
71838;SDS011;59687;37.520;15.068;2023-01-01T15:44:18;13.10;;;6.18;;
71838;SDS011;59687;37.520;15.068;2023-01-01T15:46:50;15.00;;;6.20;;
71838;SDS011;59687;37.520;15.068;2023-01-01T15:49:39;11.70;;;5.47;;
71838;SDS011;59687;37.520;15.068;2023-01-01T15:52:20;13.57;;;6.53;;
71838;SDS011;59687;37.520;15.068;2023-01-01T15:54:52;14.02;;;5.90;;
71838;SDS011;59687;37.520;15.068;2023-01-01T15:57:21;11.32;;;6.30;;
71838;SDS011;59687;37.520;15.068;2023-01-01T15:59:50;11.43;;;6.10;;
71838;SDS011;59687;37.520;15.068;2023-01-01T16:02:28;14.70;;;6.90;;
71838;SDS011;59687;37.520;15.068;2023-01-01T16:05:02;12.52;;;6.82;;
71838;SDS011;59687;37.520;15.068;2023-01-01T16:08:02;14.35;;;6.78;;
71838;SDS011;59687;37.520;15.068;2023-01-01T16:10:30;13.10;;;7.00;;
71838;SDS011;59687;37.520;15.068;2023-01-01T16:12:57;12.27;;;6.90;;
71838;SDS011;59687;37.520;15.068;2023-01-01T16:15:25;14.07;;;7.20;;
71838;SDS011;59687;37.520;15.068;2023-01-01T16:17:52;11.48;;;6.93;;
71838;SDS011;59687;37.520;15.068;2023-01-01T16:20:23;13.38;;;7.95;;
71838;SDS011;59687;37.520;15.068;2023-01-01T16:22:51;16.38;;;8.18;;
71838;SDS011;59687;37.520;15.068;2023-01-01T16:25:19;13.57;;;7.93;;
71838;SDS011;59687;37.520;15.068;2023-01-01T16:27:48;15.15;;;7.45;;
71838;SDS011;59687;37.520;15.068;2023-01-01T16:30:15;15.52;;;8.00;;
71838;SDS011;59687;37.520;15.068;2023-01-01T16:32:43;14.50;;;8.35;;
71838;SDS011;59687;37.520;15.068;2023-01-01T16:35:16;15.15;;;7.88;;
71838;SDS011;59687;37.520;15.068;2023-01-01T16:37:48;14.90;;;8.37;;
71838;SDS011;59687;37.520;15.068;2023-01-01T16:40:15;15.13;;;8.50;;
71838;SDS011;59687;37.520;15.068;2023-01-01T16:42:47;13.63;;;7.53;;
71838;SDS011;59687;37.520;15.068;2023-01-01T16:45:17;16.73;;;8.82;;
71838;SDS011;59687;37.520;15.068;2023-01-01T16:47:45;17.10;;;9.48;;
71838;SDS011;59687;37.520;15.068;2023-01-01T16:50:12;18.57;;;8.50;;
71838;SDS011;59687;37.520;15.068;2023-01-01T16:52:39;13.85;;;8.23;;
71838;SDS011;59687;37.520;15.068;2023-01-01T16:55:09;15.75;;;8.52;;
71838;SDS011;59687;37.520;15.068;2023-01-01T16:57:39;16.08;;;9.18;;
71838;SDS011;59687;37.520;15.068;2023-01-01T17:00:06;17.70;;;10.30;;
71838;SDS011;59687;37.520;15.068;2023-01-01T17:02:35;19.83;;;11.17;;
71838;SDS011;59687;37.520;15.068;2023-01-01T17:05:02;18.33;;;11.77;;
71838;SDS011;59687;37.520;15.068;2023-01-01T17:07:29;19.80;;;10.48;;
71838;SDS011;59687;37.520;15.068;2023-01-01T17:09:56;17.38;;;10.52;;
71838;SDS011;59687;37.520;15.068;2023-01-01T17:12:22;20.10;;;11.27;;